createdAt,value
2023-02-26T00:01:26.144Z,97961.25
2023-02-26T00:03:55.843Z,97957.75
2023-02-26T00:06:24.600Z,97958.84
2023-02-26T00:08:52.162Z,97960.16
2023-02-26T00:11:19.659Z,97968.34
2023-02-26T00:13:47.037Z,97972.22
2023-02-26T00:16:34.960Z,97965.78
2023-02-26T00:19:05.041Z,97971.19
2023-02-26T00:21:33.438Z,97982.69
2023-02-26T00:24:02.221Z,97994.84
2023-02-26T00:26:31.443Z,98002.00
2023-02-26T00:28:59.454Z,97994.09
2023-02-26T00:31:27.492Z,97971.97
2023-02-26T00:33:56.256Z,97962.88
2023-02-26T00:36:43.787Z,97966.09
2023-02-26T00:39:38.678Z,97984.25
2023-02-26T00:42:07.486Z,97985.13
2023-02-26T00:44:34.909Z,97989.63
2023-02-26T00:47:29.956Z,98002.84
2023-02-26T00:50:17.392Z,98007.53
2023-02-26T00:53:10.302Z,98014.53
2023-02-26T00:55:38.203Z,98032.22
2023-02-26T00:58:05.432Z,98026.16
2023-02-26T01:00:32.783Z,98026.31
2023-02-26T01:03:00.392Z,98024.63
2023-02-26T01:05:28.128Z,98032.63
2023-02-26T01:08:15.674Z,98018.91
2023-02-26T01:10:43.244Z,98023.22
2023-02-26T01:13:10.781Z,98024.25
2023-02-26T01:15:38.128Z,98023.25
2023-02-26T01:18:26.330Z,98044.94
2023-02-26T01:21:01.731Z,98048.47
2023-02-26T01:23:32.631Z,98052.84
2023-02-26T01:26:06.215Z,98051.22
2023-02-26T01:28:33.697Z,98054.84
2023-02-26T01:31:05.886Z,98059.25
2023-02-26T01:33:44.909Z,98068.19
2023-02-26T01:36:22.845Z,98074.41
2023-02-26T01:39:12.776Z,98077.19
2023-02-26T01:41:43.558Z,98076.22
2023-02-26T01:44:16.324Z,98084.13
2023-02-26T01:46:58.713Z,98085.91
2023-02-26T01:49:26.561Z,98106.97
2023-02-26T01:52:04.968Z,98107.97
2023-02-26T01:54:37.312Z,98114.09
2023-02-26T01:57:07.336Z,98102.84
2023-02-26T01:59:38.640Z,98124.63
2023-02-26T02:02:09.093Z,98130.78
2023-02-26T02:04:37.976Z,98122.91
2023-02-26T02:07:06.316Z,98134.63
2023-02-26T02:09:33.653Z,98126.63
2023-02-26T02:12:11.264Z,98130.13
2023-02-26T02:14:41.746Z,98136.25
2023-02-26T02:17:15.278Z,98133.66
2023-02-26T02:20:06.883Z,98131.00
2023-02-26T02:23:25.788Z,98134.38
2023-02-26T02:26:30.950Z,98136.97
2023-02-26T02:29:03.912Z,98144.69
2023-02-26T02:31:41.411Z,98137.75
2023-02-26T02:34:27.400Z,98151.63
2023-02-26T02:37:02.799Z,98155.91
2023-02-26T02:39:35.161Z,98163.66
2023-02-26T02:42:09.773Z,98163.63
2023-02-26T02:44:42.095Z,98175.78
2023-02-26T02:47:11.806Z,98181.84
2023-02-26T02:49:54.138Z,98181.94
2023-02-26T02:52:45.847Z,98177.56
2023-02-26T02:55:19.888Z,98187.53
2023-02-26T02:57:54.262Z,98186.72
2023-02-26T03:00:24.092Z,98186.72
2023-02-26T03:03:00.145Z,98198.28
2023-02-26T03:05:27.774Z,98199.28
2023-02-26T03:07:59.392Z,98200.25
2023-02-26T03:10:26.746Z,98203.78
2023-02-26T03:12:53.766Z,98199.50
2023-02-26T03:15:32.933Z,98199.69
2023-02-26T03:18:13.320Z,98214.25
2023-02-26T03:20:56.218Z,98212.47
2023-02-26T03:23:27.084Z,98209.84
2023-02-26T03:26:03.782Z,98213.59
2023-02-26T03:28:43.747Z,98212.69
2023-02-26T03:31:22.643Z,98213.72
2023-02-26T03:34:00.255Z,98211.88
2023-02-26T03:36:42.750Z,98220.56
2023-02-26T03:39:34.634Z,98213.59
2023-02-26T03:42:15.114Z,98213.75
2023-02-26T03:45:03.426Z,98218.97
2023-02-26T03:47:33.622Z,98215.59
2023-02-26T03:50:12.876Z,98224.34
2023-02-26T03:53:12.667Z,98239.19
2023-02-26T03:56:07.078Z,98242.81
2023-02-26T03:58:37.844Z,98251.50
2023-02-26T04:01:36.701Z,98260.22
2023-02-26T04:04:09.712Z,98261.06
2023-02-26T04:06:37.423Z,98262.81
2023-02-26T04:09:06.555Z,98262.19
2023-02-26T04:11:36.955Z,98268.19
2023-02-26T04:14:04.093Z,98279.50
2023-02-26T04:16:36.446Z,98280.34
2023-02-26T04:19:03.687Z,98291.66
2023-02-26T04:21:30.921Z,98288.09
2023-02-26T04:23:58.278Z,98292.44
2023-02-26T04:26:25.509Z,98288.88
2023-02-26T04:28:53.074Z,98294.94
2023-02-26T04:31:20.712Z,98305.34
2023-02-26T04:33:48.085Z,98310.50
2023-02-26T04:36:15.541Z,98317.41
2023-02-26T04:38:42.980Z,98318.16
2023-02-26T04:41:11.400Z,98318.22
2023-02-26T04:43:39.141Z,98321.59
2023-02-26T04:46:33.981Z,98318.16
2023-02-26T04:49:01.946Z,98321.63
2023-02-26T04:51:30.740Z,98331.13
2023-02-26T04:53:58.880Z,98339.72
2023-02-26T04:56:26.861Z,98350.84
2023-02-26T04:58:55.238Z,98349.84
2023-02-26T05:01:27.982Z,98365.38
2023-02-26T05:03:56.607Z,98369.63
2023-02-26T05:06:24.374Z,98362.53
2023-02-26T05:08:52.790Z,98367.56
2023-02-26T05:11:20.587Z,98373.53
2023-02-26T05:13:48.714Z,98364.69
2023-02-26T05:16:18.111Z,98372.41
2023-02-26T05:18:45.683Z,98377.47
2023-02-26T05:21:13.060Z,98374.78
2023-02-26T05:23:40.438Z,98382.34
2023-02-26T05:26:07.547Z,98387.47
2023-02-26T05:28:37.115Z,98391.63
2023-02-26T05:31:04.443Z,98399.31
2023-02-26T05:33:32.050Z,98394.06
2023-02-26T05:35:59.609Z,98401.72
2023-02-26T05:38:27.021Z,98400.69
2023-02-26T05:40:58.174Z,98402.25
2023-02-26T05:43:26.264Z,98411.72
2023-02-26T05:45:54.493Z,98416.69
2023-02-26T05:48:23.745Z,98422.59
2023-02-26T05:50:52.268Z,98419.97
2023-02-26T05:53:20.425Z,98415.25
2023-02-26T05:55:48.400Z,98425.59
2023-02-26T05:58:16.072Z,98428.84
2023-02-26T06:00:44.169Z,98438.34
2023-02-26T06:03:13.016Z,98438.06
2023-02-26T06:05:40.610Z,98446.56
2023-02-26T06:08:08.369Z,98451.66
2023-02-26T06:10:36.000Z,98456.72
2023-02-26T06:13:03.919Z,98460.00
2023-02-26T06:15:32.257Z,98465.03
2023-02-26T06:17:59.548Z,98476.19
2023-02-26T06:20:27.398Z,98476.72
2023-02-26T06:22:55.312Z,98489.69
2023-02-26T06:25:23.388Z,98488.41
2023-02-26T06:27:51.046Z,98497.00
2023-02-26T06:30:18.746Z,98501.75
2023-02-26T06:32:46.304Z,98506.56
2023-02-26T06:35:14.010Z,98527.22
2023-02-26T06:37:41.379Z,98525.03
2023-02-26T06:40:11.380Z,98531.66
2023-02-26T06:42:39.194Z,98536.59
2023-02-26T06:45:07.675Z,98539.72
2023-02-26T06:47:36.275Z,98548.06
2023-02-26T06:50:04.978Z,98550.25
2023-02-26T06:52:34.092Z,98551.63
2023-02-26T06:55:04.501Z,98561.03
2023-02-26T06:57:32.241Z,98569.41
2023-02-26T07:00:01.300Z,98565.75
2023-02-26T07:02:28.574Z,98568.78
2023-02-26T07:04:56.228Z,98574.53
2023-02-26T07:07:24.315Z,98577.06
2023-02-26T07:09:52.075Z,98582.78
2023-02-26T07:12:20.185Z,98582.47
2023-02-26T07:14:47.783Z,98582.88
2023-02-26T07:17:20.908Z,98588.63
2023-02-26T07:19:50.031Z,98586.41
2023-02-26T07:22:21.422Z,98590.09
2023-02-26T07:24:51.882Z,98594.25
2023-02-26T07:27:19.424Z,98598.13
2023-02-26T07:29:46.823Z,98600.28
2023-02-26T07:32:14.417Z,98592.91
2023-02-26T07:34:42.688Z,98593.44
2023-02-26T07:37:13.852Z,98602.22
2023-02-26T07:39:41.853Z,98600.78
2023-02-26T07:42:10.126Z,98596.53
2023-02-26T07:44:39.956Z,98602.19
2023-02-26T07:47:07.931Z,98609.88
2023-02-26T07:49:35.910Z,98617.19
2023-02-26T07:52:04.133Z,98618.28
2023-02-26T07:54:31.976Z,98619.22
2023-02-26T07:56:59.530Z,98623.38
2023-02-26T07:59:27.792Z,98619.13
2023-02-26T08:01:56.155Z,98629.09
2023-02-26T08:04:24.223Z,98625.53
2023-02-26T08:06:55.208Z,98628.03
2023-02-26T08:09:22.741Z,98631.19
2023-02-26T08:11:51.045Z,98626.88
2023-02-26T08:14:28.184Z,98626.16
2023-02-26T08:16:55.930Z,98627.31
2023-02-26T08:19:24.339Z,98623.91
2023-02-26T08:21:52.478Z,98612.75
2023-02-26T08:24:19.941Z,98610.34
2023-02-26T08:26:48.071Z,98620.50
2023-02-26T08:29:16.457Z,98629.72
2023-02-26T08:31:46.295Z,98634.31
2023-02-26T08:34:14.130Z,98636.41
2023-02-26T08:36:42.227Z,98634.69
2023-02-26T08:39:09.833Z,98631.56
2023-02-26T08:41:38.150Z,98629.06
2023-02-26T08:44:05.907Z,98630.59
2023-02-26T08:46:33.963Z,98625.75
2023-02-26T08:49:02.038Z,98632.13
2023-02-26T08:51:29.929Z,98624.06
2023-02-26T08:53:58.192Z,98639.22
2023-02-26T08:56:26.547Z,98636.75
2023-02-26T08:58:54.232Z,98646.91
2023-02-26T09:01:22.198Z,98657.63
2023-02-26T09:03:49.970Z,98651.81
2023-02-26T09:06:17.988Z,98652.91
2023-02-26T09:08:46.242Z,98664.38
2023-02-26T09:11:14.207Z,98661.09
2023-02-26T09:13:42.365Z,98665.41
2023-02-26T09:16:12.102Z,98685.25
2023-02-26T09:18:40.195Z,98684.44
2023-02-26T09:21:07.926Z,98687.47
2023-02-26T09:23:35.939Z,98692.38
2023-02-26T09:26:04.628Z,98699.81
2023-02-26T09:28:35.808Z,98706.75
2023-02-26T09:31:03.835Z,98696.59
2023-02-26T09:33:31.206Z,98703.72
2023-02-26T09:35:59.950Z,98704.19
2023-02-26T09:38:28.101Z,98707.00
2023-02-26T09:41:04.116Z,98704.94
2023-02-26T09:43:55.744Z,98716.19
2023-02-26T09:46:29.083Z,98722.41
2023-02-26T09:49:26.817Z,98719.63
2023-02-26T09:51:59.004Z,98722.50
2023-02-26T09:54:31.775Z,98726.94
2023-02-26T09:57:01.433Z,98724.44
2023-02-26T09:59:34.861Z,98728.28
2023-02-26T10:02:11.042Z,98731.44
2023-02-26T10:04:51.747Z,98725.72
2023-02-26T10:07:38.088Z,98727.16
2023-02-26T10:10:47.645Z,98728.09
2023-02-26T10:13:57.087Z,98735.38
2023-02-26T10:16:31.861Z,98732.25
2023-02-26T10:19:07.432Z,98731.19
2023-02-26T10:21:43.018Z,98736.47
2023-02-26T10:24:22.561Z,98737.25
2023-02-26T10:27:14.486Z,98735.38
2023-02-26T10:29:50.938Z,98737.00
2023-02-26T10:32:25.465Z,98741.72
2023-02-26T10:35:27.486Z,98742.59
2023-02-26T10:38:25.445Z,98747.75
2023-02-26T10:41:06.890Z,98743.19
2023-02-26T10:43:50.468Z,98742.53
2023-02-26T10:46:51.073Z,98747.56
2023-02-26T10:49:51.022Z,98753.19
2023-02-26T10:52:21.562Z,98755.03
2023-02-26T10:55:27.530Z,98747.72
2023-02-26T10:58:11.514Z,98747.19
2023-02-26T11:00:41.990Z,98748.03
2023-02-26T11:03:17.429Z,98750.03
2023-02-26T11:05:45.097Z,98756.00
2023-02-26T11:08:28.311Z,98750.28
2023-02-26T11:10:58.456Z,98743.91
2023-02-26T11:13:29.337Z,98757.50
2023-02-26T11:15:59.054Z,98753.78
2023-02-26T11:18:51.303Z,98762.28
2023-02-26T11:21:23.023Z,98767.41
2023-02-26T11:24:14.628Z,98762.72
2023-02-26T11:26:50.372Z,98773.97
2023-02-26T11:29:23.487Z,98779.41
2023-02-26T11:31:55.957Z,98782.47
2023-02-26T11:34:25.701Z,98795.03
2023-02-26T11:36:57.912Z,98794.91
2023-02-26T11:39:28.224Z,98788.97
2023-02-26T11:42:00.476Z,98793.31
2023-02-26T11:44:44.302Z,98798.19
2023-02-26T11:47:23.196Z,98785.47
2023-02-26T11:49:53.735Z,98796.59
2023-02-26T11:52:28.268Z,98805.88
2023-02-26T11:55:17.803Z,98812.31
2023-02-26T11:57:45.306Z,98806.09
2023-02-26T12:00:27.235Z,98807.75
2023-02-26T12:03:02.312Z,98819.97
2023-02-26T12:05:29.835Z,98811.97
2023-02-26T12:07:58.022Z,98823.72
2023-02-26T12:11:11.934Z,98827.34
2023-02-26T12:14:04.584Z,98837.72
2023-02-26T12:16:44.314Z,98837.97
2023-02-26T12:19:49.646Z,98836.81
2023-02-26T12:23:11.740Z,98844.97
2023-02-26T12:25:54.888Z,98838.03
2023-02-26T12:28:40.290Z,98836.75
2023-02-26T12:31:16.873Z,98853.88
2023-02-26T12:33:56.404Z,98849.34
2023-02-26T12:36:46.459Z,98852.19
2023-02-26T12:39:37.456Z,98854.06
2023-02-26T12:42:04.943Z,98850.34
2023-02-26T12:44:57.151Z,98854.22
2023-02-26T12:47:49.128Z,98857.50
2023-02-26T12:50:45.947Z,98878.56
2023-02-26T12:53:14.515Z,98882.50
2023-02-26T12:55:53.493Z,98888.91
2023-02-26T12:58:43.127Z,98883.84
2023-02-26T13:01:25.552Z,98892.44
2023-02-26T13:04:08.474Z,98893.56
2023-02-26T13:06:54.598Z,98907.22
2023-02-26T13:10:14.811Z,98909.63
2023-02-26T13:13:11.359Z,98916.63
2023-02-26T13:15:48.283Z,98913.72
2023-02-26T13:18:16.240Z,98924.81
2023-02-26T13:21:02.012Z,98923.06
2023-02-26T13:23:53.054Z,98918.88
2023-02-26T13:26:22.237Z,98929.75
2023-02-26T13:28:50.094Z,98926.50
2023-02-26T13:31:30.917Z,98935.75
2023-02-26T13:34:30.497Z,98940.44
2023-02-26T13:36:58.921Z,98937.50
2023-02-26T13:39:45.073Z,98931.50
2023-02-26T13:42:28.847Z,98936.00
2023-02-26T13:45:24.091Z,98932.50
2023-02-26T13:48:14.101Z,98932.66
2023-02-26T13:51:08.142Z,98934.63
2023-02-26T13:53:41.998Z,98938.50
2023-02-26T13:56:18.364Z,98945.94
2023-02-26T13:58:54.203Z,98949.75
2023-02-26T14:01:49.555Z,98951.56
2023-02-26T14:04:23.037Z,98956.41
2023-02-26T14:07:08.668Z,98971.69
2023-02-26T14:09:44.315Z,98969.53
2023-02-26T14:12:15.995Z,98968.50
2023-02-26T14:15:04.751Z,98977.50
2023-02-26T14:17:35.883Z,98973.72
2023-02-26T14:20:22.023Z,98979.31
2023-02-26T14:23:11.702Z,98979.66
2023-02-26T14:26:06.950Z,98985.22
2023-02-26T14:28:42.374Z,98984.91
2023-02-26T14:31:13.165Z,98992.44
2023-02-26T14:33:46.409Z,98996.13
2023-02-26T14:36:48.819Z,98991.38
2023-02-26T14:39:28.671Z,99002.38
2023-02-26T14:42:02.267Z,99000.00
2023-02-26T14:44:40.946Z,99016.25
2023-02-26T14:47:10.109Z,99022.78
2023-02-26T14:49:44.317Z,99026.69
2023-02-26T14:52:14.642Z,99030.03
2023-02-26T14:54:49.295Z,99031.09
2023-02-26T14:57:32.148Z,99026.19
2023-02-26T15:00:38.344Z,99030.06
2023-02-26T15:03:20.442Z,99031.19
2023-02-26T15:06:35.408Z,99036.06
2023-02-26T15:09:12.411Z,99047.00
2023-02-26T15:12:12.265Z,99049.06
2023-02-26T15:15:05.953Z,99055.63
2023-02-26T15:17:45.257Z,99057.75
2023-02-26T15:20:23.115Z,99062.56
2023-02-26T15:23:18.131Z,99068.97
2023-02-26T15:25:48.438Z,99064.91
2023-02-26T15:28:29.804Z,99075.81
2023-02-26T15:31:00.158Z,99083.13
2023-02-26T15:33:27.958Z,99078.13
2023-02-26T15:35:58.143Z,99081.91
2023-02-26T15:38:26.088Z,99081.31
2023-02-26T15:40:57.615Z,99085.91
2023-02-26T15:43:27.833Z,99090.66
2023-02-26T15:45:57.977Z,99093.59
2023-02-26T15:48:34.874Z,99100.91
2023-02-26T15:51:05.079Z,99106.50
2023-02-26T15:53:37.135Z,99113.84
2023-02-26T15:56:12.785Z,99115.81
2023-02-26T15:58:46.471Z,99115.03
2023-02-26T16:01:20.103Z,99116.94
2023-02-26T16:03:48.159Z,99119.75
2023-02-26T16:06:36.320Z,99120.75
2023-02-26T16:09:07.065Z,99127.97
2023-02-26T16:11:41.923Z,99137.91
2023-02-26T16:14:17.800Z,99133.66
2023-02-26T16:16:49.744Z,99140.06
2023-02-26T16:19:29.012Z,99138.38
2023-02-26T16:21:56.980Z,99151.53
2023-02-26T16:24:24.267Z,99153.31
2023-02-26T16:26:57.044Z,99152.56
2023-02-26T16:29:30.600Z,99158.88
2023-02-26T16:32:01.411Z,99169.28
2023-02-26T16:34:50.505Z,99167.66
2023-02-26T16:37:29.506Z,99173.94
2023-02-26T16:40:16.081Z,99187.97
2023-02-26T16:43:26.527Z,99185.53
2023-02-26T16:45:57.617Z,99194.44
2023-02-26T16:48:47.137Z,99188.22
2023-02-26T16:51:20.398Z,99199.81
2023-02-26T16:53:49.713Z,99202.47
2023-02-26T16:56:24.496Z,99205.19
2023-02-26T16:59:26.766Z,99205.28
2023-02-26T17:02:01.110Z,99213.28
2023-02-26T17:04:36.925Z,99212.53
2023-02-26T17:07:31.741Z,99217.81
2023-02-26T17:10:05.523Z,99217.84
2023-02-26T17:13:16.374Z,99220.53
2023-02-26T17:15:46.804Z,99230.28
2023-02-26T17:18:14.741Z,99221.50
2023-02-26T17:20:42.168Z,99227.69
2023-02-26T17:23:11.727Z,99233.75
2023-02-26T17:25:42.669Z,99230.97
2023-02-26T17:28:15.278Z,99236.88
2023-02-26T17:30:42.617Z,99238.66
2023-02-26T17:33:13.204Z,99237.69
2023-02-26T17:35:41.572Z,99236.66
2023-02-26T17:38:13.518Z,99243.56
2023-02-26T17:40:42.756Z,99253.00
2023-02-26T17:43:10.548Z,99255.59
2023-02-26T17:45:40.519Z,99255.53
2023-02-26T17:48:08.350Z,99264.19
2023-02-26T17:50:47.445Z,99263.28
2023-02-26T17:53:16.388Z,99270.19
2023-02-26T17:55:44.751Z,99262.44
2023-02-26T17:58:18.030Z,99266.72
2023-02-26T18:00:49.807Z,99270.25
2023-02-26T18:03:17.663Z,99278.13
2023-02-26T18:05:45.047Z,99275.53
2023-02-26T18:08:40.784Z,99287.78
2023-02-26T18:11:11.100Z,99289.59
2023-02-26T18:13:38.899Z,99290.56
2023-02-26T18:16:07.671Z,99292.41
2023-02-26T18:18:34.905Z,99288.88
2023-02-26T18:21:02.528Z,99293.19
2023-02-26T18:23:29.704Z,99293.28
2023-02-26T18:25:56.796Z,99286.38
2023-02-26T18:28:27.036Z,99289.88
2023-02-26T18:30:55.425Z,99293.38
2023-02-26T18:33:23.711Z,99303.03
2023-02-26T18:35:55.317Z,99297.88
2023-02-26T18:38:27.931Z,99298.78
2023-02-26T18:40:55.608Z,99304.03
2023-02-26T18:43:23.203Z,99311.91
2023-02-26T18:45:52.650Z,99311.06
2023-02-26T18:48:21.413Z,99313.72
2023-02-26T18:50:49.409Z,99320.75
2023-02-26T18:53:17.863Z,99327.00
2023-02-26T18:55:45.278Z,99329.63
2023-02-26T18:58:12.620Z,99329.59
2023-02-26T19:00:39.712Z,99340.94
2023-02-26T19:03:07.935Z,99349.56
2023-02-26T19:05:35.679Z,99359.13
2023-02-26T19:08:06.163Z,99359.91
2023-02-26T19:10:34.533Z,99351.19
2023-02-26T19:13:02.481Z,99352.03
2023-02-26T19:15:29.882Z,99356.41
2023-02-26T19:17:57.111Z,99359.06
2023-02-26T19:20:24.093Z,99365.16
2023-02-26T19:22:51.183Z,99360.88
2023-02-26T19:25:24.027Z,99376.59
2023-02-26T19:27:53.772Z,99380.13
2023-02-26T19:30:23.161Z,99395.09
2023-02-26T19:32:51.315Z,99395.06
2023-02-26T19:35:19.703Z,99394.06
2023-02-26T19:37:46.790Z,99404.50
2023-02-26T19:40:17.502Z,99408.84
2023-02-26T19:42:44.715Z,99409.78
2023-02-26T19:45:16.187Z,99408.88
2023-02-26T19:47:43.393Z,99408.84
2023-02-26T19:50:11.286Z,99420.13
2023-02-26T19:52:38.363Z,99418.38
2023-02-26T19:55:07.083Z,99419.25
2023-02-26T19:57:34.799Z,99422.66
2023-02-26T20:00:03.519Z,99427.91
2023-02-26T20:02:39.391Z,99436.63
2023-02-26T20:05:08.293Z,99439.25
2023-02-26T20:07:35.458Z,99441.91
2023-02-26T20:10:02.454Z,99443.66
2023-02-26T20:12:30.569Z,99452.41
2023-02-26T20:14:58.000Z,99450.66
2023-02-26T20:17:25.110Z,99454.13
2023-02-26T20:19:52.279Z,99450.63
2023-02-26T20:22:22.917Z,99450.72
2023-02-26T20:24:50.219Z,99452.38
2023-02-26T20:27:17.564Z,99459.41
2023-02-26T20:29:45.167Z,99462.78
2023-02-26T20:32:12.390Z,99476.84
2023-02-26T20:34:39.909Z,99473.31
2023-02-26T20:37:07.121Z,99474.25
2023-02-26T20:39:34.365Z,99477.81
2023-02-26T20:42:01.796Z,99487.34
2023-02-26T20:44:28.792Z,99481.19
2023-02-26T20:46:55.868Z,99481.16
2023-02-26T20:49:23.453Z,99479.41
2023-02-26T20:51:50.760Z,99482.03
2023-02-26T20:54:20.043Z,99483.78
2023-02-26T20:56:48.915Z,99489.97
2023-02-26T20:59:19.933Z,99496.06
2023-02-26T21:01:48.668Z,99487.38
2023-02-26T21:04:15.707Z,99503.13
2023-02-26T21:06:42.791Z,99502.22
2023-02-26T21:09:11.431Z,99508.41
2023-02-26T21:11:39.359Z,99502.34
2023-02-26T21:14:08.424Z,99509.31
2023-02-26T21:16:36.863Z,99508.53
2023-02-26T21:19:04.722Z,99511.09
2023-02-26T21:21:32.031Z,99516.38
2023-02-26T21:23:59.306Z,99512.97
2023-02-26T21:26:27.772Z,99513.03
2023-02-26T21:28:54.927Z,99519.94
2023-02-26T21:31:22.532Z,99525.31
2023-02-26T21:33:49.839Z,99521.88
2023-02-26T21:36:17.033Z,99526.31
2023-02-26T21:38:44.034Z,99530.78
2023-02-26T21:41:10.969Z,99530.84
2023-02-26T21:43:38.478Z,99524.84
2023-02-26T21:46:06.282Z,99538.00
2023-02-26T21:48:33.789Z,99533.75
2023-02-26T21:51:01.574Z,99540.06
2023-02-26T21:53:29.426Z,99543.63
2023-02-26T21:55:57.869Z,99544.59
2023-02-26T21:58:25.854Z,99541.25
2023-02-26T22:00:52.849Z,99551.00
2023-02-26T22:03:20.110Z,99549.25
2023-02-26T22:05:51.007Z,99559.72
2023-02-26T22:08:18.891Z,99554.59
2023-02-26T22:10:46.094Z,99565.97
2023-02-26T22:13:13.803Z,99566.09
2023-02-26T22:15:41.564Z,99566.03
2023-02-26T22:18:08.775Z,99569.53
2023-02-26T22:20:35.921Z,99571.28
2023-02-26T22:23:03.240Z,99569.50
2023-02-26T22:25:31.164Z,99579.13
2023-02-26T22:27:58.384Z,99577.25
2023-02-26T22:30:25.605Z,99582.41
2023-02-26T22:32:52.674Z,99591.97
2023-02-26T22:35:19.598Z,99590.19
2023-02-26T22:37:49.663Z,99596.31
2023-02-26T22:40:17.219Z,99597.19
2023-02-26T22:42:45.117Z,99597.06
2023-02-26T22:45:13.810Z,99597.91
2023-02-26T22:47:40.804Z,99601.41
2023-02-26T22:50:08.737Z,99597.78
2023-02-26T22:52:35.870Z,99606.50
2023-02-26T22:55:02.878Z,99611.84
2023-02-26T22:57:30.150Z,99621.28
2023-02-26T22:59:58.185Z,99623.00
2023-02-26T23:02:25.779Z,99625.69
2023-02-26T23:04:52.792Z,99632.59
2023-02-26T23:07:20.945Z,99631.63
2023-02-26T23:09:48.090Z,99639.44
2023-02-26T23:12:14.979Z,99645.53
2023-02-26T23:14:42.908Z,99644.66
2023-02-26T23:17:11.503Z,99649.16
2023-02-26T23:19:39.015Z,99644.72
2023-02-26T23:22:06.452Z,99649.97
2023-02-26T23:24:33.576Z,99648.28
2023-02-26T23:27:01.115Z,99651.81
2023-02-26T23:29:28.091Z,99665.00
2023-02-26T23:31:55.261Z,99673.81
2023-02-26T23:34:22.596Z,99673.75
2023-02-26T23:36:49.605Z,99680.06
2023-02-26T23:39:16.572Z,99674.81
2023-02-26T23:41:43.507Z,99688.91
2023-02-26T23:44:10.637Z,99689.94
2023-02-26T23:46:37.819Z,99700.38
2023-02-26T23:49:05.078Z,99711.75
2023-02-26T23:51:31.984Z,99695.47
2023-02-26T23:53:58.951Z,99706.91
2023-02-26T23:56:25.765Z,99709.56
2023-02-26T23:58:53.005Z,99715.50
